sensor_id;sensor_type;location;lat;lon;timestamp;P1;durP1;ratioP1;P2;durP2;ratioP2
35048;SDS011;21236;48.740;-3.446;2022-10-19T00:01:14;28.90;;;9.23;;
35048;SDS011;21236;48.740;-3.446;2022-10-19T00:03:41;21.23;;;9.32;;
35048;SDS011;21236;48.740;-3.446;2022-10-19T00:06:20;21.77;;;9.27;;
35048;SDS011;21236;48.740;-3.446;2022-10-19T00:08:53;24.08;;;8.77;;
35048;SDS011;21236;48.740;-3.446;2022-10-19T00:11:20;16.92;;;8.35;;
35048;SDS011;21236;48.740;-3.446;2022-10-19T00:13:47;22.30;;;9.52;;
35048;SDS011;21236;48.740;-3.446;2022-10-19T00:16:14;21.20;;;8.77;;
35048;SDS011;21236;48.740;-3.446;2022-10-19T00:18:41;18.08;;;9.38;;
35048;SDS011;21236;48.740;-3.446;2022-10-19T00:21:08;24.50;;;9.38;;
35048;SDS011;21236;48.740;-3.446;2022-10-19T00:23:35;18.65;;;9.05;;
35048;SDS011;21236;48.740;-3.446;2022-10-19T00:26:01;22.88;;;9.45;;
35048;SDS011;21236;48.740;-3.446;2022-10-19T00:28:27;18.85;;;9.35;;
35048;SDS011;21236;48.740;-3.446;2022-10-19T00:30:53;18.25;;;8.77;;
35048;SDS011;21236;48.740;-3.446;2022-10-19T00:33:19;26.48;;;10.02;;
35048;SDS011;21236;48.740;-3.446;2022-10-19T00:35:49;16.38;;;9.18;;
35048;SDS011;21236;48.740;-3.446;2022-10-19T00:38:16;21.15;;;9.10;;
35048;SDS011;21236;48.740;-3.446;2022-10-19T00:40:43;22.17;;;8.90;;
35048;SDS011;21236;48.740;-3.446;2022-10-19T00:43:15;20.92;;;8.25;;
35048;SDS011;21236;48.740;-3.446;2022-10-19T00:45:42;17.27;;;8.93;;
35048;SDS011;21236;48.740;-3.446;2022-10-19T00:48:08;17.05;;;8.95;;
35048;SDS011;21236;48.740;-3.446;2022-10-19T00:50:35;19.73;;;9.60;;
35048;SDS011;21236;48.740;-3.446;2022-10-19T00:53:02;19.48;;;8.98;;
35048;SDS011;21236;48.740;-3.446;2022-10-19T00:55:28;21.45;;;9.38;;
35048;SDS011;21236;48.740;-3.446;2022-10-19T00:57:54;18.73;;;9.00;;
35048;SDS011;21236;48.740;-3.446;2022-10-19T01:00:20;21.92;;;8.82;;
35048;SDS011;21236;48.740;-3.446;2022-10-19T01:02:47;22.38;;;8.18;;
35048;SDS011;21236;48.740;-3.446;2022-10-19T01:05:13;23.35;;;8.73;;
35048;SDS011;21236;48.740;-3.446;2022-10-19T01:07:39;21.55;;;8.68;;
35048;SDS011;21236;48.740;-3.446;2022-10-19T01:10:06;27.30;;;9.55;;
35048;SDS011;21236;48.740;-3.446;2022-10-19T01:17:46;18.60;;;8.00;;
35048;SDS011;21236;48.740;-3.446;2022-10-19T01:31:02;19.67;;;8.65;;
35048;SDS011;21236;48.740;-3.446;2022-10-19T01:33:38;21.90;;;9.68;;
35048;SDS011;21236;48.740;-3.446;2022-10-19T01:38:52;19.33;;;9.27;;
35048;SDS011;21236;48.740;-3.446;2022-10-19T01:46:16;26.48;;;9.52;;
35048;SDS011;21236;48.740;-3.446;2022-10-19T01:48:46;28.27;;;9.13;;
35048;SDS011;21236;48.740;-3.446;2022-10-19T01:51:17;21.17;;;9.15;;
35048;SDS011;21236;48.740;-3.446;2022-10-19T01:53:47;19.70;;;9.32;;
35048;SDS011;21236;48.740;-3.446;2022-10-19T01:56:15;19.48;;;9.77;;
35048;SDS011;21236;48.740;-3.446;2022-10-19T01:58:43;19.20;;;8.98;;
35048;SDS011;21236;48.740;-3.446;2022-10-19T02:01:09;20.98;;;8.57;;
35048;SDS011;21236;48.740;-3.446;2022-10-19T02:03:36;18.35;;;9.32;;
35048;SDS011;21236;48.740;-3.446;2022-10-19T02:06:03;24.48;;;9.35;;
35048;SDS011;21236;48.740;-3.446;2022-10-19T02:08:33;25.33;;;8.98;;
35048;SDS011;21236;48.740;-3.446;2022-10-19T02:11:03;23.42;;;8.45;;
35048;SDS011;21236;48.740;-3.446;2022-10-19T02:13:29;21.35;;;8.98;;
35048;SDS011;21236;48.740;-3.446;2022-10-19T02:15:57;18.60;;;8.32;;
35048;SDS011;21236;48.740;-3.446;2022-10-19T02:18:26;18.77;;;8.68;;
35048;SDS011;21236;48.740;-3.446;2022-10-19T02:20:53;27.95;;;9.73;;
35048;SDS011;21236;48.740;-3.446;2022-10-19T02:23:20;23.15;;;10.75;;
35048;SDS011;21236;48.740;-3.446;2022-10-19T02:25:47;19.75;;;8.77;;
35048;SDS011;21236;48.740;-3.446;2022-10-19T02:28:13;24.67;;;9.25;;
35048;SDS011;21236;48.740;-3.446;2022-10-19T02:30:39;25.83;;;8.63;;
35048;SDS011;21236;48.740;-3.446;2022-10-19T02:33:06;21.42;;;9.52;;
35048;SDS011;21236;48.740;-3.446;2022-10-19T02:35:32;25.83;;;10.40;;
35048;SDS011;21236;48.740;-3.446;2022-10-19T02:37:59;25.75;;;9.02;;
35048;SDS011;21236;48.740;-3.446;2022-10-19T02:40:26;23.08;;;9.68;;
35048;SDS011;21236;48.740;-3.446;2022-10-19T02:42:55;18.20;;;8.95;;
35048;SDS011;21236;48.740;-3.446;2022-10-19T02:45:27;19.77;;;8.20;;
35048;SDS011;21236;48.740;-3.446;2022-10-19T02:47:56;16.10;;;8.50;;
35048;SDS011;21236;48.740;-3.446;2022-10-19T02:50:23;18.45;;;8.35;;
35048;SDS011;21236;48.740;-3.446;2022-10-19T02:52:49;22.48;;;8.18;;
35048;SDS011;21236;48.740;-3.446;2022-10-19T02:55:15;17.02;;;8.45;;
35048;SDS011;21236;48.740;-3.446;2022-10-19T02:57:41;30.52;;;10.65;;
35048;SDS011;21236;48.740;-3.446;2022-10-19T03:00:07;21.65;;;9.55;;
35048;SDS011;21236;48.740;-3.446;2022-10-19T03:02:34;16.35;;;9.07;;
35048;SDS011;21236;48.740;-3.446;2022-10-19T03:05:00;23.52;;;8.80;;
35048;SDS011;21236;48.740;-3.446;2022-10-19T03:07:26;14.98;;;7.85;;
35048;SDS011;21236;48.740;-3.446;2022-10-19T03:09:52;21.08;;;8.48;;
35048;SDS011;21236;48.740;-3.446;2022-10-19T03:12:18;18.52;;;8.50;;
35048;SDS011;21236;48.740;-3.446;2022-10-19T03:14:44;22.83;;;9.13;;
35048;SDS011;21236;48.740;-3.446;2022-10-19T03:17:10;18.05;;;8.70;;
35048;SDS011;21236;48.740;-3.446;2022-10-19T03:19:37;19.65;;;9.30;;
35048;SDS011;21236;48.740;-3.446;2022-10-19T03:22:03;17.27;;;8.75;;
35048;SDS011;21236;48.740;-3.446;2022-10-19T03:24:30;15.60;;;8.55;;
35048;SDS011;21236;48.740;-3.446;2022-10-19T03:26:56;20.05;;;8.55;;
35048;SDS011;21236;48.740;-3.446;2022-10-19T03:29:22;19.83;;;8.25;;
35048;SDS011;21236;48.740;-3.446;2022-10-19T03:31:48;22.95;;;8.80;;
35048;SDS011;21236;48.740;-3.446;2022-10-19T03:34:14;16.77;;;8.90;;
35048;SDS011;21236;48.740;-3.446;2022-10-19T03:36:41;23.65;;;8.23;;
35048;SDS011;21236;48.740;-3.446;2022-10-19T03:39:09;20.13;;;8.57;;
35048;SDS011;21236;48.740;-3.446;2022-10-19T03:41:37;25.02;;;8.55;;
35048;SDS011;21236;48.740;-3.446;2022-10-19T03:44:03;22.42;;;8.80;;
35048;SDS011;21236;48.740;-3.446;2022-10-19T03:46:30;19.17;;;7.68;;
35048;SDS011;21236;48.740;-3.446;2022-10-19T03:48:56;15.77;;;8.07;;
35048;SDS011;21236;48.740;-3.446;2022-10-19T03:51:23;19.02;;;9.05;;
35048;SDS011;21236;48.740;-3.446;2022-10-19T03:53:53;18.73;;;9.05;;
35048;SDS011;21236;48.740;-3.446;2022-10-19T03:56:20;20.98;;;8.88;;
35048;SDS011;21236;48.740;-3.446;2022-10-19T03:58:47;23.08;;;8.27;;
35048;SDS011;21236;48.740;-3.446;2022-10-19T04:01:14;22.40;;;8.75;;
35048;SDS011;21236;48.740;-3.446;2022-10-19T04:03:41;15.27;;;8.32;;
35048;SDS011;21236;48.740;-3.446;2022-10-19T04:06:09;23.48;;;8.88;;
35048;SDS011;21236;48.740;-3.446;2022-10-19T04:08:35;18.42;;;8.55;;
35048;SDS011;21236;48.740;-3.446;2022-10-19T04:11:02;22.17;;;9.50;;
35048;SDS011;21236;48.740;-3.446;2022-10-19T04:13:29;20.77;;;8.82;;
35048;SDS011;21236;48.740;-3.446;2022-10-19T04:15:55;17.60;;;8.60;;
35048;SDS011;21236;48.740;-3.446;2022-10-19T04:18:22;18.33;;;9.02;;
35048;SDS011;21236;48.740;-3.446;2022-10-19T04:20:48;21.95;;;9.25;;
35048;SDS011;21236;48.740;-3.446;2022-10-19T04:23:14;20.08;;;9.75;;
35048;SDS011;21236;48.740;-3.446;2022-10-19T04:25:40;25.75;;;8.40;;
35048;SDS011;21236;48.740;-3.446;2022-10-19T04:28:06;20.85;;;9.48;;
35048;SDS011;21236;48.740;-3.446;2022-10-19T04:30:32;19.67;;;9.48;;
35048;SDS011;21236;48.740;-3.446;2022-10-19T04:32:58;16.52;;;9.30;;
35048;SDS011;21236;48.740;-3.446;2022-10-19T04:35:24;24.05;;;9.57;;
35048;SDS011;21236;48.740;-3.446;2022-10-19T04:37:50;21.23;;;9.88;;
35048;SDS011;21236;48.740;-3.446;2022-10-19T04:40:17;17.00;;;9.45;;
35048;SDS011;21236;48.740;-3.446;2022-10-19T04:42:43;21.38;;;9.55;;
35048;SDS011;21236;48.740;-3.446;2022-10-19T04:45:09;21.75;;;10.02;;
35048;SDS011;21236;48.740;-3.446;2022-10-19T04:47:35;21.98;;;10.68;;
35048;SDS011;21236;48.740;-3.446;2022-10-19T04:50:01;19.92;;;9.60;;
35048;SDS011;21236;48.740;-3.446;2022-10-19T04:52:27;13.68;;;9.48;;
35048;SDS011;21236;48.740;-3.446;2022-10-19T04:54:53;24.83;;;10.43;;
35048;SDS011;21236;48.740;-3.446;2022-10-19T04:57:19;17.35;;;10.13;;
35048;SDS011;21236;48.740;-3.446;2022-10-19T04:59:46;24.05;;;10.48;;
35048;SDS011;21236;48.740;-3.446;2022-10-19T05:02:12;19.13;;;9.68;;
35048;SDS011;21236;48.740;-3.446;2022-10-19T05:04:38;18.77;;;9.88;;
35048;SDS011;21236;48.740;-3.446;2022-10-19T05:07:04;25.75;;;10.45;;
35048;SDS011;21236;48.740;-3.446;2022-10-19T05:09:30;17.80;;;9.73;;
35048;SDS011;21236;48.740;-3.446;2022-10-19T05:11:56;24.80;;;9.98;;
35048;SDS011;21236;48.740;-3.446;2022-10-19T05:14:23;26.27;;;10.40;;
35048;SDS011;21236;48.740;-3.446;2022-10-19T05:16:49;27.08;;;10.90;;
35048;SDS011;21236;48.740;-3.446;2022-10-19T05:19:15;17.58;;;10.00;;
35048;SDS011;21236;48.740;-3.446;2022-10-19T05:21:41;22.98;;;10.13;;
35048;SDS011;21236;48.740;-3.446;2022-10-19T05:24:09;19.83;;;9.75;;
35048;SDS011;21236;48.740;-3.446;2022-10-19T05:26:36;21.98;;;10.73;;
35048;SDS011;21236;48.740;-3.446;2022-10-19T05:29:02;19.38;;;10.68;;
35048;SDS011;21236;48.740;-3.446;2022-10-19T05:31:32;22.90;;;10.13;;
35048;SDS011;21236;48.740;-3.446;2022-10-19T05:33:58;30.42;;;11.45;;
35048;SDS011;21236;48.740;-3.446;2022-10-19T05:36:26;27.25;;;11.27;;
35048;SDS011;21236;48.740;-3.446;2022-10-19T05:38:54;17.33;;;10.38;;
35048;SDS011;21236;48.740;-3.446;2022-10-19T05:41:20;20.05;;;10.02;;
35048;SDS011;21236;48.740;-3.446;2022-10-19T05:43:50;26.30;;;10.30;;
35048;SDS011;21236;48.740;-3.446;2022-10-19T05:46:17;29.95;;;11.98;;
35048;SDS011;21236;48.740;-3.446;2022-10-19T05:48:43;26.20;;;12.30;;
35048;SDS011;21236;48.740;-3.446;2022-10-19T05:51:10;23.40;;;12.40;;
35048;SDS011;21236;48.740;-3.446;2022-10-19T05:53:36;20.00;;;11.13;;
35048;SDS011;21236;48.740;-3.446;2022-10-19T05:56:03;26.70;;;12.20;;
35048;SDS011;21236;48.740;-3.446;2022-10-19T05:58:30;21.65;;;11.85;;
35048;SDS011;21236;48.740;-3.446;2022-10-19T06:00:56;26.67;;;11.40;;
35048;SDS011;21236;48.740;-3.446;2022-10-19T06:03:23;29.15;;;12.13;;
35048;SDS011;21236;48.740;-3.446;2022-10-19T06:05:50;30.02;;;12.27;;
35048;SDS011;21236;48.740;-3.446;2022-10-19T06:08:16;32.03;;;11.98;;
35048;SDS011;21236;48.740;-3.446;2022-10-19T06:10:43;28.65;;;11.77;;
35048;SDS011;21236;48.740;-3.446;2022-10-19T06:13:09;26.77;;;13.25;;
35048;SDS011;21236;48.740;-3.446;2022-10-19T06:15:35;23.55;;;12.15;;
35048;SDS011;21236;48.740;-3.446;2022-10-19T06:18:05;21.70;;;11.85;;
35048;SDS011;21236;48.740;-3.446;2022-10-19T06:20:32;25.17;;;12.23;;
35048;SDS011;21236;48.740;-3.446;2022-10-19T06:22:59;24.08;;;13.40;;
35048;SDS011;21236;48.740;-3.446;2022-10-19T06:25:25;23.08;;;13.18;;
35048;SDS011;21236;48.740;-3.446;2022-10-19T06:27:51;33.53;;;13.40;;
35048;SDS011;21236;48.740;-3.446;2022-10-19T06:30:17;27.25;;;12.48;;
35048;SDS011;21236;48.740;-3.446;2022-10-19T06:32:43;26.17;;;12.43;;
35048;SDS011;21236;48.740;-3.446;2022-10-19T06:35:09;30.13;;;12.73;;
35048;SDS011;21236;48.740;-3.446;2022-10-19T06:37:35;26.65;;;11.23;;
35048;SDS011;21236;48.740;-3.446;2022-10-19T06:40:01;29.58;;;11.82;;
35048;SDS011;21236;48.740;-3.446;2022-10-19T06:42:28;21.98;;;12.15;;
35048;SDS011;21236;48.740;-3.446;2022-10-19T06:44:54;31.05;;;13.05;;
35048;SDS011;21236;48.740;-3.446;2022-10-19T06:47:20;29.17;;;12.88;;
35048;SDS011;21236;48.740;-3.446;2022-10-19T06:49:46;27.02;;;12.00;;
35048;SDS011;21236;48.740;-3.446;2022-10-19T06:52:12;27.80;;;12.07;;
35048;SDS011;21236;48.740;-3.446;2022-10-19T06:54:38;27.92;;;11.45;;
35048;SDS011;21236;48.740;-3.446;2022-10-19T06:57:04;23.90;;;12.10;;
35048;SDS011;21236;48.740;-3.446;2022-10-19T06:59:32;28.25;;;12.40;;
35048;SDS011;21236;48.740;-3.446;2022-10-19T07:01:58;25.83;;;12.07;;
35048;SDS011;21236;48.740;-3.446;2022-10-19T07:04:24;24.42;;;12.13;;
35048;SDS011;21236;48.740;-3.446;2022-10-19T07:06:50;29.10;;;13.38;;
35048;SDS011;21236;48.740;-3.446;2022-10-19T07:09:16;24.63;;;12.20;;
35048;SDS011;21236;48.740;-3.446;2022-10-19T07:11:43;26.20;;;12.40;;
35048;SDS011;21236;48.740;-3.446;2022-10-19T07:14:10;29.50;;;14.25;;
35048;SDS011;21236;48.740;-3.446;2022-10-19T07:16:36;27.10;;;12.70;;
35048;SDS011;21236;48.740;-3.446;2022-10-19T07:19:02;25.70;;;12.63;;
35048;SDS011;21236;48.740;-3.446;2022-10-19T07:21:28;33.03;;;13.88;;
35048;SDS011;21236;48.740;-3.446;2022-10-19T07:23:54;23.58;;;12.05;;
35048;SDS011;21236;48.740;-3.446;2022-10-19T07:26:21;27.90;;;12.30;;
35048;SDS011;21236;48.740;-3.446;2022-10-19T07:28:50;33.55;;;13.77;;
35048;SDS011;21236;48.740;-3.446;2022-10-19T07:31:17;30.52;;;13.23;;
35048;SDS011;21236;48.740;-3.446;2022-10-19T07:33:44;24.58;;;13.40;;
35048;SDS011;21236;48.740;-3.446;2022-10-19T07:36:11;30.33;;;12.90;;
35048;SDS011;21236;48.740;-3.446;2022-10-19T07:38:38;29.92;;;13.52;;
35048;SDS011;21236;48.740;-3.446;2022-10-19T07:41:08;31.60;;;14.20;;
35048;SDS011;21236;48.740;-3.446;2022-10-19T07:43:36;32.50;;;14.57;;
35048;SDS011;21236;48.740;-3.446;2022-10-19T07:46:04;34.47;;;13.15;;
35048;SDS011;21236;48.740;-3.446;2022-10-19T07:48:31;31.98;;;13.20;;
35048;SDS011;21236;48.740;-3.446;2022-10-19T07:50:57;32.05;;;14.75;;
35048;SDS011;21236;48.740;-3.446;2022-10-19T07:53:23;29.98;;;13.75;;
35048;SDS011;21236;48.740;-3.446;2022-10-19T07:55:49;26.45;;;13.30;;
35048;SDS011;21236;48.740;-3.446;2022-10-19T07:58:15;26.23;;;12.98;;
35048;SDS011;21236;48.740;-3.446;2022-10-19T08:00:41;28.05;;;13.32;;
35048;SDS011;21236;48.740;-3.446;2022-10-19T08:03:07;32.67;;;13.50;;
35048;SDS011;21236;48.740;-3.446;2022-10-19T08:05:34;27.35;;;14.40;;
35048;SDS011;21236;48.740;-3.446;2022-10-19T08:08:00;32.17;;;13.95;;
35048;SDS011;21236;48.740;-3.446;2022-10-19T08:10:26;26.38;;;14.00;;
35048;SDS011;21236;48.740;-3.446;2022-10-19T08:12:52;28.13;;;12.60;;
35048;SDS011;21236;48.740;-3.446;2022-10-19T08:15:18;30.42;;;14.02;;
35048;SDS011;21236;48.740;-3.446;2022-10-19T08:17:44;25.88;;;14.05;;
35048;SDS011;21236;48.740;-3.446;2022-10-19T08:20:10;28.05;;;14.40;;
35048;SDS011;21236;48.740;-3.446;2022-10-19T08:22:37;30.90;;;13.52;;
35048;SDS011;21236;48.740;-3.446;2022-10-19T08:25:03;29.48;;;13.57;;
35048;SDS011;21236;48.740;-3.446;2022-10-19T08:27:30;25.95;;;13.00;;
35048;SDS011;21236;48.740;-3.446;2022-10-19T08:29:56;26.67;;;13.25;;
35048;SDS011;21236;48.740;-3.446;2022-10-19T08:32:22;31.77;;;13.55;;
35048;SDS011;21236;48.740;-3.446;2022-10-19T08:34:48;24.35;;;13.13;;
35048;SDS011;21236;48.740;-3.446;2022-10-19T08:37:14;28.33;;;13.20;;
35048;SDS011;21236;48.740;-3.446;2022-10-19T08:39:40;29.20;;;13.98;;
35048;SDS011;21236;48.740;-3.446;2022-10-19T08:42:27;28.75;;;13.38;;
35048;SDS011;21236;48.740;-3.446;2022-10-19T08:50:18;25.35;;;13.15;;
35048;SDS011;21236;48.740;-3.446;2022-10-19T08:52:46;24.02;;;12.88;;
35048;SDS011;21236;48.740;-3.446;2022-10-19T08:55:15;27.33;;;13.40;;
35048;SDS011;21236;48.740;-3.446;2022-10-19T09:00:30;31.80;;;14.27;;
35048;SDS011;21236;48.740;-3.446;2022-10-19T09:05:48;31.45;;;12.38;;
35048;SDS011;21236;48.740;-3.446;2022-10-19T09:08:18;20.23;;;11.50;;
35048;SDS011;21236;48.740;-3.446;2022-10-19T09:10:45;23.83;;;11.82;;
35048;SDS011;21236;48.740;-3.446;2022-10-19T09:15:56;19.98;;;10.63;;
35048;SDS011;21236;48.740;-3.446;2022-10-19T09:18:24;28.90;;;11.50;;
35048;SDS011;21236;48.740;-3.446;2022-10-19T09:20:54;23.08;;;11.77;;
35048;SDS011;21236;48.740;-3.446;2022-10-19T09:23:31;26.60;;;10.15;;
35048;SDS011;21236;48.740;-3.446;2022-10-19T09:26:00;26.58;;;11.25;;
35048;SDS011;21236;48.740;-3.446;2022-10-19T09:28:32;24.92;;;9.73;;
35048;SDS011;21236;48.740;-3.446;2022-10-19T09:31:03;16.55;;;9.15;;
35048;SDS011;21236;48.740;-3.446;2022-10-19T09:33:31;23.98;;;9.43;;
35048;SDS011;21236;48.740;-3.446;2022-10-19T09:35:58;21.80;;;10.98;;
35048;SDS011;21236;48.740;-3.446;2022-10-19T09:38:26;24.75;;;9.38;;
35048;SDS011;21236;48.740;-3.446;2022-10-19T09:40:52;20.60;;;10.02;;
35048;SDS011;21236;48.740;-3.446;2022-10-19T09:43:18;24.50;;;9.93;;
35048;SDS011;21236;48.740;-3.446;2022-10-19T09:46:01;19.75;;;9.35;;
35048;SDS011;21236;48.740;-3.446;2022-10-19T09:50:59;21.75;;;9.20;;
35048;SDS011;21236;48.740;-3.446;2022-10-19T09:53:26;27.45;;;10.48;;
35048;SDS011;21236;48.740;-3.446;2022-10-19T09:56:02;21.77;;;9.15;;
35048;SDS011;21236;48.740;-3.446;2022-10-19T09:58:28;19.52;;;8.98;;
35048;SDS011;21236;48.740;-3.446;2022-10-19T10:00:55;19.70;;;9.07;;
35048;SDS011;21236;48.740;-3.446;2022-10-19T10:05:48;17.08;;;8.77;;
35048;SDS011;21236;48.740;-3.446;2022-10-19T10:08:16;22.20;;;9.90;;
35048;SDS011;21236;48.740;-3.446;2022-10-19T10:10:46;23.40;;;8.43;;
35048;SDS011;21236;48.740;-3.446;2022-10-19T10:13:18;21.25;;;8.35;;
35048;SDS011;21236;48.740;-3.446;2022-10-19T10:15:50;14.55;;;8.05;;
35048;SDS011;21236;48.740;-3.446;2022-10-19T10:18:16;16.93;;;7.40;;
35048;SDS011;21236;48.740;-3.446;2022-10-19T10:21:03;15.95;;;7.55;;
35048;SDS011;21236;48.740;-3.446;2022-10-19T10:23:33;24.10;;;8.15;;
35048;SDS011;21236;48.740;-3.446;2022-10-19T10:26:00;17.02;;;7.43;;
35048;SDS011;21236;48.740;-3.446;2022-10-19T10:28:27;20.17;;;7.95;;
35048;SDS011;21236;48.740;-3.446;2022-10-19T10:31:16;19.35;;;8.38;;
35048;SDS011;21236;48.740;-3.446;2022-10-19T10:33:40;13.15;;;7.53;;
35048;SDS011;21236;48.740;-3.446;2022-10-19T10:36:07;22.55;;;8.43;;
35048;SDS011;21236;48.740;-3.446;2022-10-19T10:38:40;24.70;;;7.85;;
35048;SDS011;21236;48.740;-3.446;2022-10-19T10:41:13;17.45;;;6.70;;
35048;SDS011;21236;48.740;-3.446;2022-10-19T10:43:50;22.00;;;6.78;;
35048;SDS011;21236;48.740;-3.446;2022-10-19T10:46:19;17.98;;;7.05;;
35048;SDS011;21236;48.740;-3.446;2022-10-19T10:48:58;20.00;;;6.97;;
35048;SDS011;21236;48.740;-3.446;2022-10-19T10:56:43;17.25;;;6.18;;
35048;SDS011;21236;48.740;-3.446;2022-10-19T10:59:23;25.15;;;7.40;;
35048;SDS011;21236;48.740;-3.446;2022-10-19T11:04:24;20.67;;;6.70;;
35048;SDS011;21236;48.740;-3.446;2022-10-19T11:06:54;21.98;;;6.75;;
35048;SDS011;21236;48.740;-3.446;2022-10-19T11:09:30;21.70;;;6.60;;
35048;SDS011;21236;48.740;-3.446;2022-10-19T11:11:59;20.75;;;6.78;;
35048;SDS011;21236;48.740;-3.446;2022-10-19T11:14:47;18.23;;;7.05;;
35048;SDS011;21236;48.740;-3.446;2022-10-19T11:17:19;17.42;;;6.88;;
35048;SDS011;21236;48.740;-3.446;2022-10-19T11:19:45;15.87;;;6.17;;
35048;SDS011;21236;48.740;-3.446;2022-10-19T11:25:01;15.05;;;5.65;;
35048;SDS011;21236;48.740;-3.446;2022-10-19T11:27:36;19.02;;;6.22;;
35048;SDS011;21236;48.740;-3.446;2022-10-19T11:37:34;20.80;;;6.20;;
35048;SDS011;21236;48.740;-3.446;2022-10-19T11:40:22;18.10;;;6.20;;
35048;SDS011;21236;48.740;-3.446;2022-10-19T11:42:54;15.27;;;5.85;;
35048;SDS011;21236;48.740;-3.446;2022-10-19T11:45:42;16.10;;;6.20;;
35048;SDS011;21236;48.740;-3.446;2022-10-19T11:50:52;22.00;;;7.70;;
35048;SDS011;21236;48.740;-3.446;2022-10-19T11:56:02;18.00;;;6.05;;
35048;SDS011;21236;48.740;-3.446;2022-10-19T12:13:56;18.13;;;5.75;;
35048;SDS011;21236;48.740;-3.446;2022-10-19T12:16:27;19.23;;;6.18;;
35048;SDS011;21236;48.740;-3.446;2022-10-19T12:18:56;21.90;;;6.85;;
35048;SDS011;21236;48.740;-3.446;2022-10-19T12:21:25;24.23;;;6.22;;
35048;SDS011;21236;48.740;-3.446;2022-10-19T12:23:56;29.13;;;6.00;;
35048;SDS011;21236;48.740;-3.446;2022-10-19T12:26:23;16.58;;;5.65;;
35048;SDS011;21236;48.740;-3.446;2022-10-19T12:28:51;18.58;;;6.88;;
35048;SDS011;21236;48.740;-3.446;2022-10-19T12:31:18;17.45;;;5.40;;
35048;SDS011;21236;48.740;-3.446;2022-10-19T12:36:45;22.73;;;6.00;;
35048;SDS011;21236;48.740;-3.446;2022-10-19T12:42:18;21.65;;;6.68;;
35048;SDS011;21236;48.740;-3.446;2022-10-19T12:47:31;23.08;;;6.20;;
35048;SDS011;21236;48.740;-3.446;2022-10-19T12:49:57;17.38;;;5.78;;
35048;SDS011;21236;48.740;-3.446;2022-10-19T12:57:41;20.88;;;6.75;;
35048;SDS011;21236;48.740;-3.446;2022-10-19T13:00:29;20.85;;;6.60;;
35048;SDS011;21236;48.740;-3.446;2022-10-19T13:05:26;15.20;;;6.25;;
35048;SDS011;21236;48.740;-3.446;2022-10-19T13:07:53;20.60;;;5.70;;
35048;SDS011;21236;48.740;-3.446;2022-10-19T13:10:23;23.60;;;5.95;;
35048;SDS011;21236;48.740;-3.446;2022-10-19T13:12:50;21.00;;;5.35;;
35048;SDS011;21236;48.740;-3.446;2022-10-19T13:18:01;20.27;;;6.95;;
35048;SDS011;21236;48.740;-3.446;2022-10-19T13:25:32;26.10;;;6.07;;
35048;SDS011;21236;48.740;-3.446;2022-10-19T13:43:23;23.92;;;7.03;;
35048;SDS011;21236;48.740;-3.446;2022-10-19T13:48:29;19.17;;;6.25;;
35048;SDS011;21236;48.740;-3.446;2022-10-19T13:51:01;21.20;;;6.97;;
35048;SDS011;21236;48.740;-3.446;2022-10-19T13:56:02;18.48;;;5.82;;
35048;SDS011;21236;48.740;-3.446;2022-10-19T13:58:38;32.60;;;6.95;;
35048;SDS011;21236;48.740;-3.446;2022-10-19T14:06:35;32.08;;;7.40;;
35048;SDS011;21236;48.740;-3.446;2022-10-19T14:11:51;18.77;;;6.15;;
35048;SDS011;21236;48.740;-3.446;2022-10-19T14:14:22;22.92;;;6.68;;
35048;SDS011;21236;48.740;-3.446;2022-10-19T14:16:50;22.13;;;6.78;;
35048;SDS011;21236;48.740;-3.446;2022-10-19T14:19:26;24.23;;;6.40;;
35048;SDS011;21236;48.740;-3.446;2022-10-19T14:21:55;22.98;;;6.30;;
35048;SDS011;21236;48.740;-3.446;2022-10-19T14:24:34;24.92;;;6.70;;
35048;SDS011;21236;48.740;-3.446;2022-10-19T14:27:01;18.00;;;6.38;;
35048;SDS011;21236;48.740;-3.446;2022-10-19T14:29:28;24.73;;;7.65;;
35048;SDS011;21236;48.740;-3.446;2022-10-19T14:31:56;21.17;;;6.40;;
35048;SDS011;21236;48.740;-3.446;2022-10-19T14:34:23;23.63;;;7.43;;
35048;SDS011;21236;48.740;-3.446;2022-10-19T14:36:49;23.85;;;6.95;;
35048;SDS011;21236;48.740;-3.446;2022-10-19T14:39:23;26.15;;;6.90;;
35048;SDS011;21236;48.740;-3.446;2022-10-19T14:41:52;27.08;;;7.43;;
35048;SDS011;21236;48.740;-3.446;2022-10-19T14:47:21;27.00;;;7.47;;
35048;SDS011;21236;48.740;-3.446;2022-10-19T14:49:47;23.15;;;7.47;;
35048;SDS011;21236;48.740;-3.446;2022-10-19T14:52:16;23.92;;;6.53;;
35048;SDS011;21236;48.740;-3.446;2022-10-19T14:54:44;22.05;;;6.72;;
35048;SDS011;21236;48.740;-3.446;2022-10-19T14:57:30;26.70;;;7.55;;
35048;SDS011;21236;48.740;-3.446;2022-10-19T15:00:03;23.27;;;6.88;;
35048;SDS011;21236;48.740;-3.446;2022-10-19T15:02:35;26.05;;;7.75;;
35048;SDS011;21236;48.740;-3.446;2022-10-19T15:05:02;18.02;;;7.35;;
35048;SDS011;21236;48.740;-3.446;2022-10-19T15:07:38;17.73;;;6.95;;
35048;SDS011;21236;48.740;-3.446;2022-10-19T15:13:04;24.35;;;7.40;;
35048;SDS011;21236;48.740;-3.446;2022-10-19T15:15:31;19.17;;;7.10;;
35048;SDS011;21236;48.740;-3.446;2022-10-19T15:20:26;21.25;;;8.10;;
35048;SDS011;21236;48.740;-3.446;2022-10-19T15:22:53;24.00;;;7.22;;
35048;SDS011;21236;48.740;-3.446;2022-10-19T15:27:48;16.35;;;6.53;;
35048;SDS011;21236;48.740;-3.446;2022-10-19T15:35:20;32.85;;;8.30;;
35048;SDS011;21236;48.740;-3.446;2022-10-19T15:37:48;27.83;;;8.27;;
35048;SDS011;21236;48.740;-3.446;2022-10-19T15:40:22;30.48;;;7.88;;
35048;SDS011;21236;48.740;-3.446;2022-10-19T15:42:50;35.13;;;7.07;;
35048;SDS011;21236;48.740;-3.446;2022-10-19T15:45:26;24.67;;;7.63;;
35048;SDS011;21236;48.740;-3.446;2022-10-19T15:50:39;26.38;;;7.95;;
35048;SDS011;21236;48.740;-3.446;2022-10-19T15:53:07;34.55;;;8.07;;
35048;SDS011;21236;48.740;-3.446;2022-10-19T15:55:33;29.08;;;9.63;;
35048;SDS011;21236;48.740;-3.446;2022-10-19T15:57:59;36.35;;;8.60;;
35048;SDS011;21236;48.740;-3.446;2022-10-19T16:00:25;33.28;;;8.02;;
35048;SDS011;21236;48.740;-3.446;2022-10-19T16:02:53;34.38;;;9.40;;
35048;SDS011;21236;48.740;-3.446;2022-10-19T16:05:19;28.77;;;8.23;;
35048;SDS011;21236;48.740;-3.446;2022-10-19T16:07:45;27.23;;;8.63;;
35048;SDS011;21236;48.740;-3.446;2022-10-19T16:10:13;29.50;;;8.82;;
35048;SDS011;21236;48.740;-3.446;2022-10-19T16:12:40;31.45;;;9.73;;
35048;SDS011;21236;48.740;-3.446;2022-10-19T16:15:06;33.53;;;9.35;;
35048;SDS011;21236;48.740;-3.446;2022-10-19T16:17:33;29.60;;;9.38;;
35048;SDS011;21236;48.740;-3.446;2022-10-19T16:19:59;32.22;;;8.77;;
35048;SDS011;21236;48.740;-3.446;2022-10-19T16:22:25;32.67;;;8.60;;
35048;SDS011;21236;48.740;-3.446;2022-10-19T16:24:52;30.83;;;8.32;;
35048;SDS011;21236;48.740;-3.446;2022-10-19T16:27:18;34.75;;;8.40;;
35048;SDS011;21236;48.740;-3.446;2022-10-19T16:29:44;32.92;;;8.38;;
35048;SDS011;21236;48.740;-3.446;2022-10-19T16:32:10;32.70;;;8.30;;
35048;SDS011;21236;48.740;-3.446;2022-10-19T16:34:36;31.13;;;8.10;;
35048;SDS011;21236;48.740;-3.446;2022-10-19T16:37:02;41.20;;;8.07;;
35048;SDS011;21236;48.740;-3.446;2022-10-19T16:39:28;31.95;;;7.60;;
35048;SDS011;21236;48.740;-3.446;2022-10-19T16:41:54;27.15;;;7.55;;
35048;SDS011;21236;48.740;-3.446;2022-10-19T16:44:20;32.03;;;7.50;;
35048;SDS011;21236;48.740;-3.446;2022-10-19T16:46:46;29.33;;;7.78;;
35048;SDS011;21236;48.740;-3.446;2022-10-19T16:49:12;32.65;;;7.88;;
35048;SDS011;21236;48.740;-3.446;2022-10-19T16:51:39;36.35;;;8.32;;
35048;SDS011;21236;48.740;-3.446;2022-10-19T16:54:06;26.55;;;7.97;;
35048;SDS011;21236;48.740;-3.446;2022-10-19T16:56:33;31.33;;;8.60;;